Time;durP1;ratioP1;P1;durP2;ratioP2;P2;SDS_P1;SDS_P2;PMS_P1;PMS_P2;Temp;Humidity;BMP_temperature;BMP_pressure;BME280_temperature;BME280_humidity;BME280_pressure;Samples;Min_cycle;Max_cycle;Signal;HPM_P1;HPM_P2
2022/11/10 00:00:03;;;;;;;;;;;8.80;99.90;;;;;;5057200;28;19924;-67
2022/11/10 00:02:28;;;;;;;;;;;8.80;99.90;;;;;;5051041;28;20366;-68
2022/11/10 00:04:54;;;;;;;;;;;8.70;99.90;;;;;;5053771;28;19928;-67
2022/11/10 00:07:22;;;;;;;;;;;8.70;99.90;;;;;;5052775;28;19921;-68
2022/11/10 00:09:48;;;;;;;;;;;8.70;99.90;;;;;;5053321;28;20427;-67
2022/11/10 00:12:13;;;;;;;;;;;8.70;99.90;;;;;;5071120;28;19920;-67
2022/11/10 00:17:23;;;;;;;;;;;8.60;99.90;;;;;;5053030;28;19931;-68
2022/11/10 00:19:49;;;;;;;;;;;8.60;99.90;;;;;;5053565;28;19921;-67
2022/11/10 00:22:14;;;;;;;;;;;8.60;99.90;;;;;;5062123;28;19921;-68
2022/11/10 00:24:40;;;;;;;;;;;8.60;99.90;;;;;;5051990;28;19920;-68
2022/11/10 00:27:05;;;;;;;;;;;8.50;99.90;;;;;;5034957;28;19920;-68
2022/11/10 00:29:30;;;;;;;;;;;8.60;99.90;;;;;;5049266;28;19924;-68
2022/11/10 00:31:56;;;;;;;;;;;8.50;99.90;;;;;;5041016;28;19964;-67
2022/11/10 00:34:21;;;;;;;;;;;8.50;99.90;;;;;;5032382;28;19929;-67
2022/11/10 00:36:47;;;;;;;;;;;8.50;99.90;;;;;;5045253;28;19946;-68
2022/11/10 00:39:12;;;;;;;;;;;8.50;99.90;;;;;;5046266;28;19932;-67
2022/11/10 00:41:38;;;;;;;;;;;8.60;99.90;;;;;;5053640;28;20381;-68
2022/11/10 00:44:03;;;;;;;;;;;8.60;99.90;;;;;;5071633;28;20019;-67
2022/11/10 00:46:29;;;;;;;;;;;8.60;99.90;;;;;;5072059;28;20269;-67
2022/11/10 00:48:54;;;;;;;;;;;8.60;99.90;;;;;;5044188;28;19935;-67
2022/11/10 00:51:20;;;;;;;;;;;8.60;99.90;;;;;;5071776;28;19966;-68
2022/11/10 00:53:45;;;;;;;;;;;8.50;99.90;;;;;;5058476;28;20560;-67
2022/11/10 00:56:11;;;;;;;;;;;8.60;99.90;;;;;;5049203;28;19928;-67
2022/11/10 00:58:36;;;;;;;;;;;8.50;99.90;;;;;;5053219;28;19924;-68
2022/11/10 01:01:02;;;;;;;;;;;8.60;99.90;;;;;;5068533;28;20370;-67
2022/11/10 01:03:28;;;;;;;;;;;8.60;99.90;;;;;;5066715;28;19927;-67
2022/11/10 01:05:53;;;;;;;;;;;8.60;99.90;;;;;;5066271;28;20517;-67
2022/11/10 01:08:19;;;;;;;;;;;8.50;99.90;;;;;;5049140;28;19978;-68
2022/11/10 01:10:44;;;;;;;;;;;8.50;99.90;;;;;;5066395;28;19947;-67
2022/11/10 01:13:10;;;;;;;;;;;8.50;99.90;;;;;;5036833;28;19947;-68
2022/11/10 01:15:39;;;;;;;;;;;8.50;99.90;;;;;;5069797;28;19925;-67
2022/11/10 01:18:04;;;;;;;;;;;8.50;99.90;;;;;;5066641;28;19929;-69
2022/11/10 01:20:31;;;;;;;;;;;8.50;99.90;;;;;;5068107;28;19927;-67
2022/11/10 01:22:56;;;;;;;;;;;8.50;99.90;;;;;;5055605;28;19920;-67
2022/11/10 01:25:22;;;;;;;;;;;8.50;99.90;;;;;;5054494;28;19932;-67
2022/11/10 01:27:48;;;;;;;;;;;8.50;99.90;;;;;;5055638;28;19924;-68
2022/11/10 01:30:14;;;;;;;;;;;8.40;99.90;;;;;;5064919;28;19954;-67
2022/11/10 01:32:39;;;;;;;;;;;8.50;99.90;;;;;;5044348;28;19963;-68
2022/11/10 01:35:05;;;;;;;;;;;8.50;99.90;;;;;;5047281;28;20129;-67
2022/11/10 01:37:31;;;;;;;;;;;8.50;99.90;;;;;;5057180;28;19929;-68
2022/11/10 01:39:56;;;;;;;;;;;8.40;99.90;;;;;;5073913;28;19973;-67
2022/11/10 01:42:26;;;;;;;;;;;8.50;99.90;;;;;;5057691;28;20290;-68
2022/11/10 01:45:10;;;;;;;;;;;8.40;99.90;;;;;;5062155;28;19963;-68
2022/11/10 01:47:36;;;;;;;;;;;8.40;99.90;;;;;;5057141;28;19925;-67
2022/11/10 01:50:01;;;;;;;;;;;8.40;99.90;;;;;;5044515;28;19939;-67
2022/11/10 01:52:27;;;;;;;;;;;8.50;99.90;;;;;;5056526;28;19927;-67
2022/11/10 01:54:52;;;;;;;;;;;8.50;99.90;;;;;;5075272;28;19928;-67
2022/11/10 01:57:18;;;;;;;;;;;8.40;99.90;;;;;;5071292;28;19921;-67
2022/11/10 01:59:45;;;;;;;;;;;8.40;99.90;;;;;;5074571;28;20791;-67
2022/11/10 02:02:23;;;;;;;;;;;8.40;99.90;;;;;;5056850;28;19925;-67
2022/11/10 02:04:50;;;;;;;;;;;8.40;99.90;;;;;;5069735;28;19927;-68
2022/11/10 02:07:16;;;;;;;;;;;8.40;99.90;;;;;;5068168;28;19931;-68
2022/11/10 02:09:41;;;;;;;;;;;8.40;99.90;;;;;;5054368;28;19932;-68
2022/11/10 02:12:06;;;;;;;;;;;8.30;99.90;;;;;;5053845;28;20388;-68
2022/11/10 02:14:32;;;;;;;;;;;8.40;99.90;;;;;;5057262;28;19921;-68
2022/11/10 02:16:58;;;;;;;;;;;8.40;99.90;;;;;;5056152;28;19921;-68
2022/11/10 02:19:24;;;;;;;;;;;8.40;99.90;;;;;;5054735;28;20690;-68
2022/11/10 02:21:50;;;;;;;;;;;8.40;99.90;;;;;;5055642;28;19920;-68
2022/11/10 02:24:16;;;;;;;;;;;8.40;99.90;;;;;;5055683;28;20318;-67
2022/11/10 02:27:01;;;;;;;;;;;8.40;99.90;;;;;;5055776;28;19928;-68
2022/11/10 02:29:27;;;;;;;;;;;8.40;99.90;;;;;;5066723;28;20078;-68
2022/11/10 02:31:52;;;;;;;;;;;8.50;99.90;;;;;;5068416;28;20414;-68
2022/11/10 02:34:18;;;;;;;;;;;8.50;99.90;;;;;;5042670;28;20061;-69
2022/11/10 02:36:43;;;;;;;;;;;8.50;99.90;;;;;;5074142;28;19921;-68
2022/11/10 02:39:09;;;;;;;;;;;8.60;99.90;;;;;;5060679;28;19928;-68
2022/11/10 02:41:34;;;;;;;;;;;8.60;99.90;;;;;;5066680;28;19932;-67
2022/11/10 02:44:01;;;;;;;;;;;8.50;99.90;;;;;;5057199;28;19959;-68
2022/11/10 02:46:26;;;;;;;;;;;8.60;99.90;;;;;;5056044;28;19967;-68
2022/11/10 02:48:52;;;;;;;;;;;8.60;99.90;;;;;;5072285;28;20324;-68
2022/11/10 02:51:17;;;;;;;;;;;8.60;99.90;;;;;;5055887;28;19964;-69
2022/11/10 02:53:43;;;;;;;;;;;8.60;99.90;;;;;;5055618;28;20397;-69
2022/11/10 02:56:08;;;;;;;;;;;8.60;99.90;;;;;;5070072;28;19937;-68
2022/11/10 02:58:34;;;;;;;;;;;8.60;99.90;;;;;;5066462;28;19924;-68
2022/11/10 03:01:02;;;;;;;;;;;8.60;99.90;;;;;;5055726;28;19921;-68
2022/11/10 03:03:28;;;;;;;;;;;8.60;99.90;;;;;;5073942;28;19925;-68
2022/11/10 03:05:53;;;;;;;;;;;8.50;99.90;;;;;;5055761;28;19927;-68
2022/11/10 03:08:18;;;;;;;;;;;8.50;99.90;;;;;;5055445;28;19928;-68
2022/11/10 03:10:44;;;;;;;;;;;8.50;99.90;;;;;;5072156;28;19920;-68
2022/11/10 03:13:09;;;;;;;;;;;8.60;99.90;;;;;;5066689;28;20375;-69
2022/11/10 03:15:35;;;;;;;;;;;8.50;99.90;;;;;;5067726;28;19963;-68
2022/11/10 03:18:04;;;;;;;;;;;8.60;99.90;;;;;;5055613;28;20352;-68
2022/11/10 03:20:29;;;;;;;;;;;8.60;99.90;;;;;;5062034;28;20378;-68
2022/11/10 03:23:01;;;;;;;;;;;8.50;99.90;;;;;;5073226;28;19969;-69
2022/11/10 03:25:27;;;;;;;;;;;8.50;99.90;;;;;;5038589;28;19973;-68
2022/11/10 03:27:52;;;;;;;;;;;8.60;99.90;;;;;;5037814;28;20011;-68
2022/11/10 03:30:18;;;;;;;;;;;8.50;99.90;;;;;;5053020;28;19925;-68
2022/11/10 03:32:43;;;;;;;;;;;8.50;99.90;;;;;;5063150;28;20395;-68
2022/11/10 03:35:09;;;;;;;;;;;8.50;99.90;;;;;;5072978;28;19928;-68
2022/11/10 03:37:35;;;;;;;;;;;8.50;99.90;;;;;;5055009;28;19928;-68
2022/11/10 03:40:00;;;;;;;;;;;8.50;99.90;;;;;;5054638;28;20269;-68
2022/11/10 03:42:26;;;;;;;;;;;8.50;99.90;;;;;;5054841;28;20378;-69
2022/11/10 03:44:51;;;;;;;;;;;8.40;99.90;;;;;;5054468;28;19939;-68
2022/11/10 03:47:17;;;;;;;;;;;8.40;99.90;;;;;;5070393;28;20386;-69
2022/11/10 03:49:42;;;;;;;;;;;8.40;99.90;;;;;;5064428;28;19935;-68
2022/11/10 03:52:08;;;;;;;;;;;8.40;99.90;;;;;;5051905;28;19977;-68
2022/11/10 03:54:33;;;;;;;;;;;8.40;99.90;;;;;;5053173;28;20275;-68
2022/11/10 03:56:59;;;;;;;;;;;8.40;99.90;;;;;;5057023;28;19920;-69
2022/11/10 03:59:24;;;;;;;;;;;8.30;99.90;;;;;;5049350;28;19921;-69
2022/11/10 04:01:50;;;;;;;;;;;8.30;99.90;;;;;;5058187;28;20385;-68
2022/11/10 04:09:43;;;;;;;;;;;8.30;99.90;;;;;;5051873;28;19924;-68
2022/11/10 04:17:37;;;;;;;;;;;8.40;99.90;;;;;;5053355;28;19921;-69
2022/11/10 04:20:03;;;;;;;;;;;8.30;99.90;;;;;;5051339;28;19921;-69
2022/11/10 04:25:13;;;;;;;;;;;8.40;99.90;;;;;;5066315;28;20246;-69
2022/11/10 04:27:38;;;;;;;;;;;8.40;99.90;;;;;;5070998;28;19926;-68
2022/11/10 04:30:04;;;;;;;;;;;8.40;99.90;;;;;;5035121;28;19940;-68
2022/11/10 04:32:30;;;;;;;;;;;8.40;99.90;;;;;;5052800;28;20422;-68
2022/11/10 04:34:55;;;;;;;;;;;8.40;99.90;;;;;;5063539;28;20043;-68
2022/11/10 04:37:21;;;;;;;;;;;8.40;99.90;;;;;;5047432;28;20374;-68
2022/11/10 04:39:46;;;;;;;;;;;8.40;99.90;;;;;;5070604;28;19921;-68
2022/11/10 04:42:12;;;;;;;;;;;8.40;99.90;;;;;;5061147;28;19929;-68
2022/11/10 04:44:37;;;;;;;;;;;8.50;99.90;;;;;;5050996;28;19927;-68
2022/11/10 04:47:02;;;;;;;;;;;8.50;99.90;;;;;;5052687;28;20618;-68
2022/11/10 04:49:28;;;;;;;;;;;8.50;99.90;;;;;;5070881;28;19931;-68
2022/11/10 04:51:53;;;;;;;;;;;8.60;99.90;;;;;;5055338;22;19953;-66
2022/11/10 04:54:19;;;;;;;;;;;8.60;99.90;;;;;;5012555;28;19996;-67
2022/11/10 04:56:44;;;;;;;;;;;8.60;99.90;;;;;;5030156;28;19947;-67
2022/11/10 04:59:10;;;;;;;;;;;8.60;99.90;;;;;;5008917;28;19921;-67
2022/11/10 05:01:35;;;;;;;;;;;8.60;99.90;;;;;;5028082;28;20293;-67
2022/11/10 05:04:01;;;;;;;;;;;8.70;99.90;;;;;;5021002;28;19921;-67
2022/11/10 05:06:26;;;;;;;;;;;8.80;99.90;;;;;;5030289;28;20828;-67
2022/11/10 05:08:52;;;;;;;;;;;8.80;99.90;;;;;;5030868;28;19933;-67
2022/11/10 05:11:17;;;;;;;;;;;8.80;99.90;;;;;;5018545;28;19921;-67
2022/11/10 05:13:43;;;;;;;;;;;8.80;99.90;;;;;;5019654;28;19925;-67
2022/11/10 05:16:09;;;;;;;;;;;8.90;99.90;;;;;;5018676;28;20636;-67
2022/11/10 05:18:35;;;;;;;;;;;8.80;99.90;;;;;;5013353;28;20021;-66
2022/11/10 05:21:00;;;;;;;;;;;8.90;99.90;;;;;;5001134;28;19929;-67
2022/11/10 05:23:37;;;;;;;;;;;8.90;99.90;;;;;;5024638;28;19921;-67
2022/11/10 05:26:14;;;;;;;;;;;8.90;99.90;;;;;;5011238;28;19965;-67
2022/11/10 05:28:41;;;;;;;;;;;8.90;99.90;;;;;;5012287;28;19933;-67
2022/11/10 05:31:06;;;;;;;;;;;8.90;99.90;;;;;;5022756;28;19968;-66
2022/11/10 05:33:32;;;;;;;;;;;8.90;99.90;;;;;;5011970;28;20576;-67
2022/11/10 05:35:58;;;;;;;;;;;8.90;99.90;;;;;;5009234;28;19968;-67
2022/11/10 05:38:24;;;;;;;;;;;8.90;99.90;;;;;;5007204;28;19975;-66
2022/11/10 05:40:49;;;;;;;;;;;8.90;99.90;;;;;;5029094;28;19983;-67
2022/11/10 05:43:15;;;;;;;;;;;8.90;99.90;;;;;;5031584;28;19921;-66
2022/11/10 05:45:41;;;;;;;;;;;9.00;99.90;;;;;;5019182;28;19929;-67
2022/11/10 05:48:06;;;;;;;;;;;8.90;99.90;;;;;;5030335;28;19936;-67
2022/11/10 05:50:32;;;;;;;;;;;8.90;99.90;;;;;;5012493;28;19921;-67
2022/11/10 05:52:58;;;;;;;;;;;9.00;99.90;;;;;;5029077;28;20438;-67
2022/11/10 05:55:26;;;;;;;;;;;9.00;99.90;;;;;;5029627;28;20721;-67
2022/11/10 05:57:52;;;;;;;;;;;9.00;99.90;;;;;;5030515;28;19921;-68
2022/11/10 06:00:20;;;;;;;;;;;9.00;99.90;;;;;;5011498;28;20541;-68
2022/11/10 06:02:55;;;;;;;;;;;9.00;99.90;;;;;;5030335;28;19921;-66
2022/11/10 06:05:20;;;;;;;;;;;8.90;99.90;;;;;;5018808;28;20405;-67
2022/11/10 06:07:46;;;;;;;;;;;8.90;99.90;;;;;;5028409;28;19932;-68
2022/11/10 06:10:11;;;;;;;;;;;8.90;99.90;;;;;;5027635;28;20075;-68
2022/11/10 06:12:37;;;;;;;;;;;9.00;99.90;;;;;;5009361;28;19963;-67
2022/11/10 06:15:03;;;;;;;;;;;9.00;99.90;;;;;;5003562;28;19932;-68
2022/11/10 06:17:28;;;;;;;;;;;9.10;99.90;;;;;;5033889;28;19927;-68
2022/11/10 06:19:54;;;;;;;;;;;9.10;99.90;;;;;;5020720;28;20267;-68
2022/11/10 06:22:19;;;;;;;;;;;9.10;99.90;;;;;;5009678;28;19971;-67
2022/11/10 06:24:45;;;;;;;;;;;9.10;99.90;;;;;;5034565;28;19925;-68
2022/11/10 06:27:11;;;;;;;;;;;9.10;99.90;;;;;;5003608;28;19932;-68
2022/11/10 06:29:36;;;;;;;;;;;9.10;99.90;;;;;;5034183;28;19925;-68
2022/11/10 06:32:02;;;;;;;;;;;9.10;99.90;;;;;;5014590;28;19929;-68
2022/11/10 06:34:27;;;;;;;;;;;9.00;99.90;;;;;;5047477;28;19921;-68
2022/11/10 06:36:52;;;;;;;;;;;9.00;99.90;;;;;;5034386;28;20387;-68
2022/11/10 06:39:18;;;;;;;;;;;9.00;99.90;;;;;;5027535;28;19926;-68
2022/11/10 06:41:43;;;;;;;;;;;9.00;99.90;;;;;;5024981;28;19968;-66
2022/11/10 06:44:10;;;;;;;;;;;9.00;99.90;;;;;;5034237;28;19925;-67
2022/11/10 06:46:36;;;;;;;;;;;9.00;99.90;;;;;;5006210;28;19921;-66
2022/11/10 06:49:01;;;;;;;;;;;8.90;99.90;;;;;;5032441;28;19925;-66
2022/11/10 06:51:27;;;;;;;;;;;9.00;99.90;;;;;;5007956;28;20385;-66
2022/11/10 06:53:52;;;;;;;;;;;9.00;99.90;;;;;;5011873;28;19941;-66
2022/11/10 06:56:18;;;;;;;;;;;9.00;99.90;;;;;;5032529;28;20014;-66
2022/11/10 06:58:43;;;;;;;;;;;9.00;99.90;;;;;;5024022;28;19928;-66
2022/11/10 07:01:09;;;;;;;;;;;9.00;99.90;;;;;;5014164;28;19925;-67
2022/11/10 07:03:36;;;;;;;;;;;9.00;99.90;;;;;;5019106;28;19948;-66
2022/11/10 07:06:01;;;;;;;;;;;9.00;99.90;;;;;;5014691;28;19925;-66
2022/11/10 07:08:27;;;;;;;;;;;9.00;99.90;;;;;;5014398;28;20317;-66
2022/11/10 07:10:53;;;;;;;;;;;9.10;99.90;;;;;;5019480;28;19925;-66
2022/11/10 07:13:19;;;;;;;;;;;9.10;99.90;;;;;;5032034;28;19921;-66
2022/11/10 07:15:45;;;;;;;;;;;9.20;99.90;;;;;;5015607;28;19932;-66
2022/11/10 07:18:10;;;;;;;;;;;9.20;99.90;;;;;;5001805;28;20267;-67
2022/11/10 07:20:36;;;;;;;;;;;9.30;99.90;;;;;;5032273;28;19929;-67
2022/11/10 07:23:03;;;;;;;;;;;9.30;99.90;;;;;;5026437;28;19921;-67
2022/11/10 07:25:29;;;;;;;;;;;9.40;99.90;;;;;;5020595;28;19922;-67
2022/11/10 07:28:02;;;;;;;;;;;9.50;99.90;;;;;;5013683;28;20398;-67
2022/11/10 07:30:28;;;;;;;;;;;9.60;99.90;;;;;;5005354;28;19945;-67
2022/11/10 07:33:04;;;;;;;;;;;9.60;99.90;;;;;;5006589;28;20776;-67
2022/11/10 07:35:30;;;;;;;;;;;9.60;99.90;;;;;;4995740;28;19921;-67
2022/11/10 07:38:06;;;;;;;;;;;9.70;99.90;;;;;;5001194;28;20017;-67
2022/11/10 07:40:31;;;;;;;;;;;9.70;99.90;;;;;;5020991;28;19921;-67
2022/11/10 07:42:57;;;;;;;;;;;9.70;99.90;;;;;;5026425;28;19921;-67
2022/11/10 07:45:23;;;;;;;;;;;9.70;99.90;;;;;;5009404;28;19925;-67
2022/11/10 07:47:49;;;;;;;;;;;9.60;99.90;;;;;;5030163;28;19948;-67
2022/11/10 07:50:15;;;;;;;;;;;9.60;99.90;;;;;;5031014;28;19933;-67
2022/11/10 07:52:40;;;;;;;;;;;9.60;99.90;;;;;;5013807;28;19995;-67
2022/11/10 07:55:06;;;;;;;;;;;9.60;99.90;;;;;;5030550;28;20011;-67
2022/11/10 07:57:32;;;;;;;;;;;9.60;99.90;;;;;;5013478;28;19921;-67
2022/11/10 07:59:57;;;;;;;;;;;9.70;99.90;;;;;;5020648;28;20028;-67
2022/11/10 08:02:23;;;;;;;;;;;9.70;99.90;;;;;;5032746;28;19935;-67
2022/11/10 08:04:48;;;;;;;;;;;9.80;99.90;;;;;;5032094;28;19968;-67
2022/11/10 08:07:14;;;;;;;;;;;9.70;99.90;;;;;;5032510;28;20378;-67
2022/11/10 08:09:39;;;;;;;;;;;9.70;99.90;;;;;;5024997;28;19933;-67
2022/11/10 08:12:05;;;;;;;;;;;9.70;99.90;;;;;;5025629;28;20263;-67
2022/11/10 08:14:30;;;;;;;;;;;9.70;99.90;;;;;;5020007;28;19974;-67
2022/11/10 08:16:56;;;;;;;;;;;9.70;99.90;;;;;;5019574;28;19932;-67
2022/11/10 08:19:21;;;;;;;;;;;9.80;99.90;;;;;;5007273;28;19963;-67
2022/11/10 08:21:47;;;;;;;;;;;9.70;99.90;;;;;;5000079;28;20029;-67
2022/11/10 08:24:12;;;;;;;;;;;9.70;99.90;;;;;;5013767;28;19925;-66
2022/11/10 08:26:38;;;;;;;;;;;9.70;99.90;;;;;;5008306;28;19921;-67
2022/11/10 08:29:03;;;;;;;;;;;9.80;99.90;;;;;;5005351;28;19929;-67
2022/11/10 08:31:31;;;;;;;;;;;9.70;99.90;;;;;;5019729;28;19936;-67
2022/11/10 08:33:56;;;;;;;;;;;9.80;99.90;;;;;;5030179;28;20371;-67
2022/11/10 08:36:22;;;;;;;;;;;9.90;99.90;;;;;;5031570;28;19928;-67
2022/11/10 08:38:48;;;;;;;;;;;10.00;99.90;;;;;;5020249;28;19921;-67
2022/11/10 08:41:14;;;;;;;;;;;10.10;99.90;;;;;;5004347;28;20299;-67
2022/11/10 08:43:40;;;;;;;;;;;10.20;99.90;;;;;;5011696;28;19925;-67
2022/11/10 08:46:06;;;;;;;;;;;10.30;99.90;;;;;;5006988;28;19928;-67
2022/11/10 08:48:31;;;;;;;;;;;10.50;99.90;;;;;;5035720;28;20045;-67
2022/11/10 08:50:58;;;;;;;;;;;10.50;99.90;;;;;;5018638;28;20541;-67
2022/11/10 08:53:24;;;;;;;;;;;10.60;99.90;;;;;;5028573;28;19929;-67
2022/11/10 08:55:49;;;;;;;;;;;10.60;99.90;;;;;;5028195;28;19928;-67
2022/11/10 08:58:16;;;;;;;;;;;10.70;99.90;;;;;;5024806;28;20277;-67
2022/11/10 09:00:42;;;;;;;;;;;10.70;99.90;;;;;;5022935;28;19957;-67
2022/11/10 09:03:10;;;;;;;;;;;10.70;99.90;;;;;;5012972;28;19991;-67
2022/11/10 09:05:36;;;;;;;;;;;10.70;99.90;;;;;;5028497;28;19925;-67
2022/11/10 09:08:03;;;;;;;;;;;10.70;99.90;;;;;;5027074;28;20374;-67
2022/11/10 09:10:28;;;;;;;;;;;10.70;99.90;;;;;;5031637;28;20008;-67
2022/11/10 09:12:57;;;;;;;;;;;10.80;99.90;;;;;;5013622;28;20355;-67
2022/11/10 09:15:22;;;;;;;;;;;10.90;99.90;;;;;;5011511;28;20000;-67
2022/11/10 09:17:48;;;;;;;;;;;10.90;99.90;;;;;;5031432;28;19965;-67
2022/11/10 09:20:13;;;;;;;;;;;11.00;99.90;;;;;;5016929;28;19925;-67
2022/11/10 09:22:39;;;;;;;;;;;11.00;99.90;;;;;;5021641;28;19921;-67
2022/11/10 09:25:04;;;;;;;;;;;11.10;99.90;;;;;;5031135;28;19939;-67
2022/11/10 09:27:33;;;;;;;;;;;11.20;99.90;;;;;;5031170;28;19929;-67
2022/11/10 09:29:58;;;;;;;;;;;11.20;99.90;;;;;;5017847;28;19929;-67
2022/11/10 09:32:24;;;;;;;;;;;11.40;99.90;;;;;;5031397;28;20040;-67
2022/11/10 09:34:50;;;;;;;;;;;11.50;99.90;;;;;;5025829;28;19921;-67
2022/11/10 09:37:15;;;;;;;;;;;11.60;99.90;;;;;;5012958;28;19921;-67
2022/11/10 09:39:40;;;;;;;;;;;11.80;99.90;;;;;;5028206;28;19975;-67
2022/11/10 09:42:19;;;;;;;;;;;11.80;99.90;;;;;;5023597;28;19961;-66
2022/11/10 09:44:50;;;;;;;;;;;12.00;99.90;;;;;;5011568;28;19929;-67
2022/11/10 09:47:23;;;;;;;;;;;12.10;99.90;;;;;;5014048;28;19925;-67
2022/11/10 09:49:51;;;;;;;;;;;12.20;99.90;;;;;;5008872;28;20436;-67
2022/11/10 09:52:17;;;;;;;;;;;12.30;99.90;;;;;;5008568;28;19925;-66
2022/11/10 09:54:55;;;;;;;;;;;12.30;99.90;;;;;;5027963;28;19975;-67
2022/11/10 09:57:23;;;;;;;;;;;12.40;99.90;;;;;;5033618;28;20008;-67
2022/11/10 09:59:48;;;;;;;;;;;12.40;99.90;;;;;;5027030;28;19925;-66
2022/11/10 10:02:14;;;;;;;;;;;12.50;99.90;;;;;;5032029;28;19979;-67
2022/11/10 10:05:05;;;;;;;;;;;12.60;99.90;;;;;;5022119;28;20468;-67
2022/11/10 10:07:37;;;;;;;;;;;12.70;99.90;;;;;;5027485;28;20038;-67
2022/11/10 10:10:21;;;;;;;;;;;12.70;99.90;;;;;;5010601;28;19936;-66
2022/11/10 10:13:06;;;;;;;;;;;12.80;99.90;;;;;;5009178;28;19928;-66
2022/11/10 10:15:50;;;;;;;;;;;12.90;99.90;;;;;;5015675;28;19929;-66
2022/11/10 10:18:15;;;;;;;;;;;13.00;99.90;;;;;;5009633;28;19940;-67
2022/11/10 10:20:47;;;;;;;;;;;13.00;99.90;;;;;;5025830;28;20278;-67
2022/11/10 10:23:29;;;;;;;;;;;13.00;99.90;;;;;;5025959;28;19929;-66
2022/11/10 10:25:55;;;;;;;;;;;13.10;99.90;;;;;;5016501;28;20728;-67
2022/11/10 10:28:26;;;;;;;;;;;13.10;99.90;;;;;;5022310;28;19933;-67
2022/11/10 10:30:53;;;;;;;;;;;13.20;99.90;;;;;;5016931;28;19948;-67
2022/11/10 10:33:22;;;;;;;;;;;13.40;99.90;;;;;;5027544;28;19952;-66
2022/11/10 10:35:48;;;;;;;;;;;13.40;99.90;;;;;;5024730;28;20019;-66
2022/11/10 10:38:29;;;;;;;;;;;13.50;99.90;;;;;;5014949;28;20924;-66
2022/11/10 10:40:59;;;;;;;;;;;13.60;99.90;;;;;;5014545;28;19944;-66
2022/11/10 10:43:24;;;;;;;;;;;13.40;99.90;;;;;;5029433;28;19932;-66
2022/11/10 10:46:06;;;;;;;;;;;13.40;99.90;;;;;;5026747;28;20363;-67
2022/11/10 10:48:32;;;;;;;;;;;13.30;99.90;;;;;;5024709;28;19960;-67
2022/11/10 10:50:57;;;;;;;;;;;13.30;99.90;;;;;;5007541;28;19967;-67
2022/11/10 10:53:23;;;;;;;;;;;13.30;99.90;;;;;;5017020;28;20386;-67
2022/11/10 10:55:49;;;;;;;;;;;13.30;99.90;;;;;;5024757;28;19921;-67
2022/11/10 10:58:19;;;;;;;;;;;13.30;99.90;;;;;;5021631;28;19921;-67
2022/11/10 11:00:46;;;;;;;;;;;13.40;99.90;;;;;;5026361;28;19925;-67
2022/11/10 11:03:17;;;;;;;;;;;13.50;99.90;;;;;;5024209;28;19928;-67
2022/11/10 11:05:57;;;;;;;;;;;13.60;99.90;;;;;;5033300;28;20023;-66
2022/11/10 11:08:24;;;;;;;;;;;13.60;99.90;;;;;;5033416;28;19929;-67
2022/11/10 11:10:49;;;;;;;;;;;13.70;99.90;;;;;;5032693;28;19932;-67
2022/11/10 11:13:22;;;;;;;;;;;13.70;99.90;;;;;;5015684;28;20019;-67
2022/11/10 11:15:58;;;;;;;;;;;13.80;99.90;;;;;;5015790;28;19982;-67
2022/11/10 11:18:24;;;;;;;;;;;13.90;99.90;;;;;;5012996;28;19925;-67
2022/11/10 11:20:50;;;;;;;;;;;14.00;99.90;;;;;;5032722;28;19975;-67
2022/11/10 11:23:33;;;;;;;;;;;14.10;99.90;;;;;;5033209;28;19935;-67
2022/11/10 11:26:03;;;;;;;;;;;14.10;99.90;;;;;;5014196;28;19921;-67
2022/11/10 11:28:34;;;;;;;;;;;14.20;99.90;;;;;;5014904;28;19929;-67
2022/11/10 11:31:17;;;;;;;;;;;14.30;99.90;;;;;;5014433;28;19983;-67
2022/11/10 11:33:43;;;;;;;;;;;;;;;;;;5022521;28;19929;-67
2022/11/10 11:36:15;;;;;;;;;;;14.30;99.90;;;;;;5029272;28;19932;-67
2022/11/10 11:38:47;;;;;;;;;;;14.40;99.90;;;;;;5012186;28;20480;-67
2022/11/10 11:41:13;;;;;;;;;;;;;;;;;;5030189;28;19960;-67
2022/11/10 11:43:38;;;;;;;;;;;;;;;;;;5012746;28;20045;-67
2022/11/10 11:46:13;;;;;;;;;;;14.30;99.90;;;;;;5030404;28;19921;-67
2022/11/10 11:48:46;;;;;;;;;;;14.20;99.90;;;;;;5034856;28;19925;-67
2022/11/10 11:51:50;;;;;;;;;;;14.20;99.90;;;;;;5031469;28;19975;-67
2022/11/10 11:54:18;;;;;;;;;;;14.10;99.90;;;;;;4936279;29;20363;-67
2022/11/10 11:56:46;;;;;;;;;;;14.10;99.90;;;;;;4951564;29;19961;-67
2022/11/10 11:59:26;;;;;;;;;;;14.20;99.90;;;;;;4988237;28;19925;-67
2022/11/10 12:02:08;;;;;;;;;;;14.30;99.90;;;;;;5030838;28;19927;-66
2022/11/10 12:04:43;;;;;;;;;;;14.30;99.90;;;;;;5011071;28;19936;-66
2022/11/10 12:07:24;;;;;;;;;;;14.30;99.90;;;;;;5009948;28;19921;-66
2022/11/10 12:09:54;;;;;;;;;;;14.30;99.90;;;;;;5013762;28;19929;-67
2022/11/10 12:12:39;;;;;;;;;;;14.20;99.90;;;;;;5031845;28;20371;-67
2022/11/10 12:15:07;;;;;;;;;;;14.30;99.90;;;;;;5011141;28;20254;-67
2022/11/10 12:17:55;;;;;;;;;;;14.30;99.90;;;;;;5031486;28;19925;-67
2022/11/10 12:20:23;;;;;;;;;;;14.30;99.90;;;;;;5038923;28;20386;-67
2022/11/10 12:23:07;;;;;;;;;;;14.30;99.90;;;;;;5032225;28;19921;-67
2022/11/10 12:25:39;;;;;;;;;;;14.30;99.90;;;;;;5032261;28;19956;-67
2022/11/10 12:28:14;;;;;;;;;;;14.20;99.90;;;;;;5014137;28;19921;-67
2022/11/10 12:30:41;;;;;;;;;;;14.20;99.90;;;;;;5032076;28;19931;-67
2022/11/10 12:33:30;;;;;;;;;;;14.10;99.90;;;;;;5037130;28;20023;-67
2022/11/10 12:35:56;;;;;;;;;;;14.20;99.90;;;;;;5051771;28;19974;-67
2022/11/10 12:38:26;;;;;;;;;;;14.30;99.90;;;;;;5035490;28;19933;-67
2022/11/10 12:40:56;;;;;;;;;;;14.20;99.90;;;;;;5031941;28;19921;-67
2022/11/10 12:43:28;;;;;;;;;;;14.10;99.90;;;;;;5031912;28;19925;-67
2022/11/10 12:45:57;;;;;;;;;;;14.10;99.90;;;;;;5032104;28;20004;-67
2022/11/10 12:48:22;;;;;;;;;;;14.10;99.90;;;;;;5033921;28;19974;-67
2022/11/10 12:50:48;;;;;;;;;;;14.00;99.90;;;;;;5051888;28;19948;-67
2022/11/10 12:53:19;;;;;;;;;;;14.00;99.90;;;;;;5039334;28;20063;-67
2022/11/10 12:55:46;;;;;;;;;;;13.90;99.90;;;;;;5031885;28;20402;-67
2022/11/10 12:58:13;;;;;;;;;;;13.90;99.90;;;;;;5028460;28;19927;-66
2022/11/10 13:00:41;;;;;;;;;;;13.90;99.90;;;;;;5011685;28;19928;-67
2022/11/10 13:03:12;;;;;;;;;;;13.90;99.90;;;;;;5013370;28;19928;-67
2022/11/10 13:05:40;;;;;;;;;;;13.80;99.90;;;;;;5031952;28;19921;-67
2022/11/10 13:08:15;;;;;;;;;;;13.80;99.90;;;;;;5018333;28;19921;-67
2022/11/10 13:10:51;;;;;;;;;;;13.80;99.90;;;;;;5031646;28;19932;-67
2022/11/10 13:13:16;;;;;;;;;;;13.80;99.90;;;;;;5031844;28;19921;-67
2022/11/10 13:15:42;;;;;;;;;;;13.80;99.90;;;;;;5022543;28;19928;-67
2022/11/10 13:18:08;;;;;;;;;;;13.90;99.90;;;;;;5017709;28;19932;-67
2022/11/10 13:20:53;;;;;;;;;;;13.90;99.90;;;;;;5020271;28;19975;-67
2022/11/10 13:23:32;;;;;;;;;;;13.90;99.90;;;;;;5028271;28;19945;-67
2022/11/10 13:26:07;;;;;;;;;;;13.90;99.90;;;;;;5031374;28;19925;-67
2022/11/10 13:28:47;;;;;;;;;;;13.90;99.90;;;;;;5030258;28;20267;-67
2022/11/10 13:31:25;;;;;;;;;;;14.00;99.90;;;;;;5032835;28;20307;-67
2022/11/10 13:34:06;;;;;;;;;;;13.90;99.90;;;;;;5038161;28;20274;-67
2022/11/10 13:36:35;;;;;;;;;;;14.10;99.90;;;;;;5033297;28;19927;-67
2022/11/10 13:39:15;;;;;;;;;;;14.10;99.90;;;;;;5036210;28;19931;-67
2022/11/10 13:42:00;;;;;;;;;;;14.00;99.90;;;;;;5030778;28;20000;-67
2022/11/10 13:44:31;;;;;;;;;;;14.00;99.90;;;;;;5002126;28;19961;-66
2022/11/10 13:46:56;;;;;;;;;;;13.90;99.90;;;;;;5026092;28;19956;-67
2022/11/10 13:49:25;;;;;;;;;;;13.90;99.90;;;;;;5036960;28;20326;-67
2022/11/10 13:52:04;;;;;;;;;;;13.80;99.90;;;;;;5035617;28;19971;-67
2022/11/10 13:54:36;;;;;;;;;;;13.80;99.90;;;;;;5033422;28;20367;-67
2022/11/10 13:57:05;;;;;;;;;;;13.80;99.90;;;;;;5029310;28;19964;-67
2022/11/10 13:59:31;;;;;;;;;;;13.80;99.90;;;;;;5026162;28;19987;-67
2022/11/10 14:02:16;;;;;;;;;;;13.80;99.90;;;;;;5031598;28;20350;-67
2022/11/10 14:04:42;;;;;;;;;;;13.70;99.90;;;;;;5036894;28;20013;-67
2022/11/10 14:07:16;;;;;;;;;;;13.80;99.90;;;;;;5030402;28;20398;-66
2022/11/10 14:09:48;;;;;;;;;;;13.80;99.90;;;;;;5001186;28;19934;-67
2022/11/10 14:12:29;;;;;;;;;;;13.70;99.90;;;;;;5011576;28;19929;-67
2022/11/10 14:15:04;;;;;;;;;;;13.60;99.90;;;;;;5032153;28;19922;-67
2022/11/10 14:17:32;;;;;;;;;;;13.60;99.90;;;;;;5037036;28;19928;-67
2022/11/10 14:19:58;;;;;;;;;;;13.60;99.90;;;;;;5003312;28;19921;-67
2022/11/10 14:22:40;;;;;;;;;;;13.60;99.90;;;;;;5037159;28;19925;-66
2022/11/10 14:25:24;;;;;;;;;;;13.60;99.90;;;;;;5032722;28;19921;-67
2022/11/10 14:27:49;;;;;;;;;;;13.60;99.90;;;;;;5010292;28;19928;-67
2022/11/10 14:30:25;;;;;;;;;;;13.60;99.90;;;;;;5033585;28;19948;-67
2022/11/10 14:33:23;;;;;;;;;;;13.50;99.90;;;;;;5005967;28;19929;-66
2022/11/10 14:35:49;;;;;;;;;;;13.50;99.90;;;;;;4987771;28;19921;-67
2022/11/10 14:38:18;;;;;;;;;;;13.50;99.90;;;;;;5045790;28;20369;-67
2022/11/10 14:40:44;;;;;;;;;;;13.60;99.90;;;;;;5031139;28;19984;-67
2022/11/10 14:43:28;;;;;;;;;;;13.60;99.90;;;;;;5033642;28;20421;-67
2022/11/10 14:45:53;;;;;;;;;;;13.50;99.90;;;;;;5029329;28;19953;-67
2022/11/10 14:48:22;;;;;;;;;;;13.50;99.90;;;;;;5031301;28;20332;-67